createdAt,value
2023-02-19T00:00:39.331Z,99.90
2023-02-19T00:03:27.643Z,99.90
2023-02-19T00:06:15.977Z,99.90
2023-02-19T00:09:05.090Z,99.90
2023-02-19T00:11:53.310Z,99.90
2023-02-19T00:14:41.524Z,99.90
2023-02-19T00:17:32.145Z,99.90
2023-02-19T00:20:21.325Z,99.90
2023-02-19T00:23:09.552Z,99.90
2023-02-19T00:26:06.005Z,99.90
2023-02-19T00:29:02.487Z,99.90
2023-02-19T00:31:51.206Z,99.90
2023-02-19T00:34:40.895Z,99.90
2023-02-19T00:37:29.154Z,99.90
2023-02-19T00:40:17.531Z,99.90
2023-02-19T00:43:05.819Z,99.90
2023-02-19T00:45:54.009Z,99.90
2023-02-19T00:48:42.370Z,99.90
2023-02-19T00:51:34.869Z,99.90
2023-02-19T00:54:23.563Z,99.90
2023-02-19T00:57:11.804Z,99.90
2023-02-19T01:00:00.004Z,99.90
2023-02-19T01:02:48.310Z,99.90
2023-02-19T01:05:36.514Z,99.90
2023-02-19T01:08:26.180Z,99.90
2023-02-19T01:11:15.194Z,99.90
2023-02-19T01:14:04.992Z,99.90
2023-02-19T01:16:53.319Z,99.90
2023-02-19T01:19:41.567Z,99.90
2023-02-19T01:22:29.786Z,99.90
2023-02-19T01:25:19.582Z,99.90
2023-02-19T01:28:07.892Z,99.90
2023-02-19T01:30:56.145Z,99.90
2023-02-19T01:33:46.850Z,99.90
2023-02-19T01:36:37.052Z,99.90
2023-02-19T01:39:25.241Z,99.90
2023-02-19T01:42:17.571Z,99.90
2023-02-19T01:45:28.583Z,99.90
2023-02-19T01:48:20.702Z,99.90
2023-02-19T01:51:13.864Z,99.90
2023-02-19T01:54:06.004Z,99.90
2023-02-19T01:56:56.541Z,99.90
2023-02-19T01:59:47.104Z,99.90
2023-02-19T02:02:35.530Z,99.90
2023-02-19T02:05:33.915Z,99.90
2023-02-19T02:08:54.071Z,99.90
2023-02-19T02:11:46.182Z,99.90
2023-02-19T02:14:37.260Z,99.90
2023-02-19T02:17:27.533Z,99.90
2023-02-19T02:20:32.909Z,99.90
2023-02-19T02:23:31.045Z,99.90
2023-02-19T02:26:36.699Z,99.90
2023-02-19T02:30:07.605Z,99.90
2023-02-19T02:33:01.041Z,99.90
2023-02-19T02:35:53.804Z,99.90
2023-02-19T02:38:45.016Z,99.90
2023-02-19T02:41:34.359Z,99.90
2023-02-19T02:44:22.582Z,99.90
2023-02-19T02:47:32.427Z,99.90
2023-02-19T02:50:25.951Z,99.90
2023-02-19T02:53:36.284Z,99.90
2023-02-19T02:56:26.382Z,99.90
2023-02-19T02:59:16.666Z,99.90
2023-02-19T03:02:14.446Z,99.90
2023-02-19T03:05:25.382Z,99.90
2023-02-19T03:08:17.340Z,99.90
2023-02-19T03:11:21.512Z,99.90
2023-02-19T03:14:31.448Z,99.90
2023-02-19T03:17:41.054Z,99.90
2023-02-19T03:20:33.543Z,99.90
2023-02-19T03:23:45.325Z,99.90
2023-02-19T03:26:34.040Z,99.90
2023-02-19T03:29:25.879Z,99.90
2023-02-19T03:32:19.125Z,99.90
2023-02-19T03:35:12.533Z,99.90
2023-02-19T03:38:07.184Z,99.90
2023-02-19T03:41:00.879Z,99.90
2023-02-19T03:43:53.702Z,99.90
2023-02-19T03:46:49.081Z,99.90
2023-02-19T03:49:46.709Z,99.90
2023-02-19T03:52:42.779Z,99.90
2023-02-19T03:55:37.987Z,99.90
2023-02-19T03:58:31.263Z,99.90
2023-02-19T04:01:25.741Z,99.90
2023-02-19T04:04:19.314Z,99.90
2023-02-19T04:07:08.292Z,99.90
2023-02-19T04:09:56.947Z,99.90
2023-02-19T04:12:52.557Z,99.90
2023-02-19T04:15:43.967Z,99.90
2023-02-19T04:18:37.257Z,99.90
2023-02-19T04:21:25.790Z,99.90
2023-02-19T04:24:18.834Z,99.90
2023-02-19T04:27:09.872Z,99.90
2023-02-19T04:29:59.454Z,99.90
2023-02-19T04:32:47.669Z,99.90
2023-02-19T04:35:35.884Z,99.90
2023-02-19T04:38:24.263Z,99.90
2023-02-19T04:41:12.781Z,99.90
2023-02-19T04:44:01.178Z,99.90
2023-02-19T04:46:50.757Z,99.90
2023-02-19T04:49:38.997Z,99.90
2023-02-19T04:52:27.259Z,99.90
2023-02-19T04:55:15.549Z,99.90
2023-02-19T04:58:03.771Z,99.90
2023-02-19T05:00:54.846Z,99.90
2023-02-19T05:03:44.964Z,99.90
2023-02-19T05:06:33.243Z,99.90
2023-02-19T05:09:21.687Z,99.90
2023-02-19T05:12:09.920Z,99.90
2023-02-19T05:14:58.286Z,99.90
2023-02-19T05:17:46.530Z,99.90
2023-02-19T05:20:36.088Z,99.90
2023-02-19T05:23:24.339Z,99.90
2023-02-19T05:26:17.860Z,99.90
2023-02-19T05:29:06.100Z,99.90
2023-02-19T05:31:54.456Z,99.90
2023-02-19T05:34:42.790Z,99.90
2023-02-19T05:37:32.339Z,99.90
2023-02-19T05:40:20.552Z,99.90
2023-02-19T05:43:09.232Z,99.90
2023-02-19T05:45:59.508Z,99.90
2023-02-19T05:48:48.088Z,99.90
2023-02-19T05:51:36.321Z,99.90
2023-02-19T05:54:25.865Z,99.90
2023-02-19T05:57:14.062Z,99.90
2023-02-19T06:00:02.229Z,99.90
2023-02-19T06:02:50.459Z,99.90
2023-02-19T06:05:38.709Z,99.90
2023-02-19T06:08:26.922Z,99.90
2023-02-19T06:11:16.739Z,99.90
2023-02-19T06:14:05.100Z,99.90
2023-02-19T06:16:53.290Z,99.90
2023-02-19T06:19:41.575Z,99.90
2023-02-19T06:22:29.893Z,99.90
2023-02-19T06:25:18.256Z,99.90
2023-02-19T06:28:09.415Z,99.90
2023-02-19T06:30:59.823Z,99.90
2023-02-19T06:33:48.283Z,99.90
2023-02-19T06:36:36.547Z,99.90
2023-02-19T06:39:24.799Z,99.90
2023-02-19T06:42:12.978Z,99.90
2023-02-19T06:45:02.551Z,99.90
2023-02-19T06:47:50.736Z,99.90
2023-02-19T06:50:38.964Z,99.90
2023-02-19T06:53:27.597Z,99.90
2023-02-19T06:56:27.423Z,99.90
2023-02-19T06:59:17.792Z,99.90
2023-02-19T07:02:07.405Z,99.90
2023-02-19T07:04:55.589Z,99.90
2023-02-19T07:07:46.110Z,99.90
2023-02-19T07:10:34.296Z,99.90
2023-02-19T07:13:22.546Z,99.90
2023-02-19T07:16:11.554Z,99.90
2023-02-19T07:19:01.955Z,99.90
2023-02-19T07:21:50.254Z,99.90
2023-02-19T07:24:38.549Z,99.90
2023-02-19T07:27:26.748Z,99.90
2023-02-19T07:30:15.158Z,99.90
2023-02-19T07:33:03.515Z,99.90
2023-02-19T07:35:53.223Z,99.90
2023-02-19T07:38:41.515Z,99.90
2023-02-19T07:41:29.811Z,99.90
2023-02-19T07:44:18.191Z,99.90
2023-02-19T07:47:06.396Z,99.90
2023-02-19T07:49:58.609Z,99.90
2023-02-19T07:52:48.141Z,99.90
2023-02-19T07:55:36.548Z,99.90
2023-02-19T07:58:24.760Z,99.90
2023-02-19T08:01:16.253Z,99.90
2023-02-19T08:04:03.544Z,99.90
2023-02-19T08:06:53.709Z,99.90
2023-02-19T08:09:43.263Z,99.90
2023-02-19T08:12:49.241Z,99.90
2023-02-19T08:15:37.467Z,99.90
2023-02-19T08:18:27.080Z,99.90
2023-02-19T08:21:18.152Z,99.90
2023-02-19T08:24:07.077Z,99.90
2023-02-19T08:26:56.684Z,99.90
2023-02-19T08:29:45.004Z,99.90
2023-02-19T08:32:33.301Z,99.90
2023-02-19T08:35:21.689Z,99.90
2023-02-19T08:38:10.955Z,99.90
2023-02-19T08:40:59.313Z,99.90
2023-02-19T08:43:48.880Z,99.90
2023-02-19T08:46:37.161Z,99.90
2023-02-19T08:49:27.388Z,99.90
2023-02-19T08:52:15.627Z,99.90
2023-02-19T08:55:04.283Z,99.90
2023-02-19T08:57:53.042Z,99.90
2023-02-19T09:00:42.590Z,99.90
2023-02-19T09:03:30.839Z,99.90
2023-02-19T09:06:21.187Z,99.90
2023-02-19T09:09:10.060Z,99.90
2023-02-19T09:11:58.238Z,99.90
2023-02-19T09:14:46.717Z,99.90
2023-02-19T09:17:36.313Z,99.90
2023-02-19T09:20:24.530Z,99.90
2023-02-19T09:23:12.757Z,99.90
2023-02-19T09:26:03.247Z,99.90
2023-02-19T09:28:51.476Z,99.90
2023-02-19T09:31:39.804Z,99.90
2023-02-19T09:34:30.338Z,99.90
2023-02-19T09:37:18.576Z,99.90
2023-02-19T09:40:07.397Z,99.90
2023-02-19T09:42:55.635Z,99.90
2023-02-19T09:45:44.209Z,99.90
2023-02-19T09:48:33.034Z,99.90
2023-02-19T09:51:23.903Z,99.90
2023-02-19T09:54:18.985Z,99.90
2023-02-19T09:57:12.524Z,99.90
2023-02-19T10:00:05.662Z,99.90
2023-02-19T10:02:55.222Z,99.90
2023-02-19T10:05:43.771Z,99.90
2023-02-19T10:08:37.785Z,99.90
2023-02-19T10:11:27.377Z,99.90
2023-02-19T10:14:20.270Z,99.90
2023-02-19T10:17:15.062Z,99.90
2023-02-19T10:20:04.644Z,99.90
2023-02-19T10:22:56.637Z,99.90
2023-02-19T10:25:50.088Z,99.90
2023-02-19T10:28:38.873Z,99.90
2023-02-19T10:31:27.437Z,99.90
2023-02-19T10:34:22.252Z,99.90
2023-02-19T10:37:15.156Z,99.90
2023-02-19T10:40:03.834Z,99.90
2023-02-19T10:42:55.616Z,99.90
2023-02-19T10:45:49.136Z,99.90
2023-02-19T10:48:41.907Z,99.90
2023-02-19T10:51:35.990Z,99.90
2023-02-19T10:54:29.762Z,99.90
2023-02-19T10:57:34.731Z,99.90
2023-02-19T11:00:26.986Z,99.90
2023-02-19T11:03:21.722Z,99.90
2023-02-19T11:06:12.678Z,99.90
2023-02-19T11:09:02.092Z,99.90
2023-02-19T11:11:52.673Z,99.90
2023-02-19T11:14:44.441Z,99.90
2023-02-19T11:17:34.415Z,99.90
2023-02-19T11:20:22.809Z,99.90
2023-02-19T11:23:16.912Z,99.90
2023-02-19T11:26:07.936Z,99.90
2023-02-19T11:29:01.046Z,99.90
2023-02-19T11:31:49.334Z,99.90
2023-02-19T11:34:39.290Z,99.90
2023-02-19T11:37:27.494Z,99.90
2023-02-19T11:40:15.800Z,99.90
2023-02-19T11:43:11.638Z,99.90
2023-02-19T11:46:05.689Z,99.90
2023-02-19T11:48:57.907Z,99.90
2023-02-19T11:52:01.152Z,99.90
2023-02-19T11:54:55.005Z,99.90
2023-02-19T11:57:47.342Z,99.90
2023-02-19T12:00:45.780Z,99.90
2023-02-19T12:04:03.088Z,99.90
2023-02-19T12:07:04.597Z,99.90
2023-02-19T12:10:04.272Z,99.90
2023-02-19T12:13:00.892Z,99.90
2023-02-19T12:16:14.898Z,99.90
2023-02-19T12:19:39.265Z,99.90
2023-02-19T12:22:31.693Z,99.90
2023-02-19T12:25:33.426Z,99.90
2023-02-19T12:28:36.150Z,99.90
2023-02-19T12:31:57.121Z,99.90
2023-02-19T12:35:09.673Z,99.90
2023-02-19T12:38:09.915Z,99.90
2023-02-19T12:41:13.219Z,99.90
2023-02-19T12:44:06.664Z,99.90
2023-02-19T12:47:01.311Z,99.90
2023-02-19T12:49:59.589Z,99.90
2023-02-19T12:52:51.745Z,99.90
2023-02-19T12:55:44.181Z,99.90
2023-02-19T12:58:43.699Z,99.90
2023-02-19T13:01:38.600Z,99.90
2023-02-19T13:04:35.364Z,99.90
2023-02-19T13:07:29.323Z,99.90
2023-02-19T13:10:26.076Z,99.90
2023-02-19T13:13:22.794Z,99.90
2023-02-19T13:16:18.597Z,99.90
2023-02-19T13:19:07.186Z,99.90
2023-02-19T13:22:22.041Z,99.90
2023-02-19T13:25:12.153Z,99.90
2023-02-19T13:28:11.873Z,99.90
2023-02-19T13:31:21.955Z,99.90
2023-02-19T13:34:21.394Z,99.90
2023-02-19T13:37:11.240Z,99.90
2023-02-19T13:40:03.977Z,99.90
2023-02-19T13:42:57.859Z,99.90
2023-02-19T13:45:47.530Z,99.90
2023-02-19T13:48:38.718Z,99.90
2023-02-19T13:51:48.909Z,99.90
2023-02-19T13:54:40.258Z,99.90
2023-02-19T13:57:29.708Z,99.90
2023-02-19T14:00:49.451Z,99.90
2023-02-19T14:03:50.856Z,99.90
2023-02-19T14:07:12.577Z,99.90
2023-02-19T14:10:01.853Z,99.90
2023-02-19T14:12:50.097Z,99.50
2023-02-19T14:15:44.801Z,99.90
2023-02-19T14:18:45.633Z,99.40
2023-02-19T14:21:37.632Z,99.90
2023-02-19T14:24:26.021Z,99.90
2023-02-19T14:27:14.431Z,99.90
2023-02-19T14:30:03.300Z,99.90
2023-02-19T14:33:02.805Z,99.90
2023-02-19T14:36:03.569Z,99.90
2023-02-19T14:38:54.520Z,97.80
2023-02-19T14:41:44.058Z,98.30
2023-02-19T14:44:47.952Z,98.50
2023-02-19T14:47:38.733Z,97.90
2023-02-19T14:50:30.901Z,97.30
2023-02-19T14:53:23.428Z,97.50
2023-02-19T14:56:21.773Z,97.90
2023-02-19T14:59:23.805Z,98.40
2023-02-19T15:02:17.252Z,98.90
2023-02-19T15:05:16.386Z,98.50
2023-02-19T15:08:09.812Z,99.50
2023-02-19T15:11:00.183Z,99.90
2023-02-19T15:13:53.264Z,99.90
2023-02-19T15:16:41.542Z,99.90
2023-02-19T15:19:33.116Z,99.90
2023-02-19T15:22:23.510Z,99.90
2023-02-19T15:25:18.112Z,99.90
2023-02-19T15:28:34.326Z,99.90
2023-02-19T15:31:22.722Z,99.90
2023-02-19T15:34:18.397Z,99.90
2023-02-19T15:37:09.201Z,99.90
2023-02-19T15:39:59.390Z,99.90
2023-02-19T15:42:48.852Z,99.90
2023-02-19T15:45:42.481Z,99.90
2023-02-19T15:48:36.670Z,99.90
2023-02-19T15:51:28.182Z,99.90
2023-02-19T15:54:27.116Z,99.90
2023-02-19T15:57:20.101Z,99.90
2023-02-19T16:00:15.617Z,99.90
2023-02-19T16:03:06.487Z,99.90
2023-02-19T16:06:02.360Z,99.90
2023-02-19T16:09:02.754Z,99.90
2023-02-19T16:11:53.028Z,99.90
2023-02-19T16:14:41.330Z,99.90
2023-02-19T16:17:29.613Z,99.90
2023-02-19T16:20:23.301Z,99.90
2023-02-19T16:23:15.097Z,99.90
2023-02-19T16:26:04.063Z,99.90
2023-02-19T16:28:54.011Z,99.90
2023-02-19T16:31:49.874Z,99.90
2023-02-19T16:34:43.023Z,99.90
2023-02-19T16:37:35.435Z,99.90
2023-02-19T16:41:03.133Z,99.90
2023-02-19T16:43:51.335Z,99.90
2023-02-19T16:46:40.940Z,99.90
2023-02-19T16:49:29.220Z,99.90
2023-02-19T16:52:17.879Z,99.90
2023-02-19T16:55:14.478Z,99.90
2023-02-19T16:58:03.067Z,99.90
2023-02-19T17:00:51.318Z,99.90
2023-02-19T17:03:40.194Z,99.90
2023-02-19T17:06:28.652Z,99.90
2023-02-19T17:09:16.869Z,99.90
2023-02-19T17:12:10.522Z,99.90
2023-02-19T17:14:58.743Z,99.90
2023-02-19T17:17:47.128Z,99.90
2023-02-19T17:20:37.239Z,99.90
2023-02-19T17:23:25.496Z,99.90
2023-02-19T17:26:15.497Z,99.90
2023-02-19T17:29:06.909Z,99.90
2023-02-19T17:31:55.162Z,99.90
2023-02-19T17:34:43.522Z,99.90
2023-02-19T17:37:31.718Z,99.90
2023-02-19T17:40:32.239Z,99.90
2023-02-19T17:43:21.583Z,99.90
2023-02-19T17:46:15.474Z,99.90
2023-02-19T17:49:03.836Z,99.90
2023-02-19T17:51:52.011Z,99.90
2023-02-19T17:54:40.416Z,99.90
2023-02-19T17:57:33.426Z,99.90
2023-02-19T18:00:23.550Z,99.90
2023-02-19T18:03:13.259Z,99.90
2023-02-19T18:06:01.511Z,99.90
2023-02-19T18:08:51.298Z,99.90
2023-02-19T18:11:39.656Z,99.90
2023-02-19T18:14:29.032Z,99.90
2023-02-19T18:17:17.244Z,99.90
2023-02-19T18:20:08.340Z,99.90
2023-02-19T18:22:57.317Z,99.90
2023-02-19T18:25:45.615Z,99.90
2023-02-19T18:28:35.570Z,99.90
2023-02-19T18:31:24.219Z,99.90
2023-02-19T18:34:18.295Z,99.90
2023-02-19T18:37:07.982Z,99.90
2023-02-19T18:39:56.222Z,99.90
2023-02-19T18:42:44.442Z,99.90
2023-02-19T18:45:35.335Z,99.90
2023-02-19T18:48:23.759Z,99.90
2023-02-19T18:51:12.984Z,99.90
2023-02-19T18:54:04.063Z,99.90
2023-02-19T18:56:52.490Z,99.90
2023-02-19T18:59:41.877Z,99.90
2023-02-19T19:02:42.690Z,99.90
2023-02-19T19:05:36.794Z,99.90
2023-02-19T19:08:25.352Z,99.90
2023-02-19T19:11:14.959Z,99.90
2023-02-19T19:14:04.254Z,99.90
2023-02-19T19:16:52.667Z,99.90
2023-02-19T19:19:41.303Z,99.90
2023-02-19T19:22:29.518Z,99.90
2023-02-19T19:25:18.121Z,99.90
2023-02-19T19:28:07.769Z,99.90
2023-02-19T19:30:56.044Z,99.90
2023-02-19T19:33:46.552Z,99.90
2023-02-19T19:36:35.167Z,99.90
2023-02-19T19:39:23.417Z,99.90
2023-02-19T19:42:11.676Z,99.90
2023-02-19T19:45:01.555Z,99.90
2023-02-19T19:47:50.013Z,99.90
2023-02-19T19:50:38.372Z,99.90
2023-02-19T19:53:26.631Z,99.90
2023-02-19T19:56:14.937Z,99.90
2023-02-19T19:59:03.170Z,99.90
2023-02-19T20:01:54.725Z,99.90
2023-02-19T20:04:45.103Z,99.90
2023-02-19T20:07:33.902Z,99.90
2023-02-19T20:10:23.162Z,99.90
2023-02-19T20:13:11.379Z,99.90
2023-02-19T20:15:59.626Z,99.90
2023-02-19T20:18:49.203Z,99.90
2023-02-19T20:21:37.419Z,99.90
2023-02-19T20:24:28.689Z,99.90
2023-02-19T20:27:16.791Z,99.90
2023-02-19T20:30:05.940Z,99.90
2023-02-19T20:32:54.533Z,99.90
2023-02-19T20:35:44.095Z,99.90
2023-02-19T20:38:32.323Z,99.90
2023-02-19T20:41:20.677Z,99.90
2023-02-19T20:44:08.905Z,99.90
2023-02-19T20:46:58.883Z,99.90
2023-02-19T20:49:47.282Z,99.90
2023-02-19T20:52:36.934Z,99.90
2023-02-19T20:55:26.010Z,99.90
2023-02-19T20:58:14.252Z,99.90
2023-02-19T21:01:02.986Z,99.90
2023-02-19T21:03:51.160Z,99.90
2023-02-19T21:06:39.410Z,99.90
2023-02-19T21:09:28.959Z,99.90
2023-02-19T21:12:17.215Z,99.90
2023-02-19T21:15:06.254Z,99.90
2023-02-19T21:17:54.480Z,99.90
2023-02-19T21:20:42.697Z,99.90
2023-02-19T21:23:30.963Z,99.90
2023-02-19T21:26:20.608Z,99.90
2023-02-19T21:29:10.698Z,99.90
2023-02-19T21:31:59.360Z,99.90
2023-02-19T21:34:47.611Z,99.90
2023-02-19T21:37:35.864Z,99.90
2023-02-19T21:40:25.279Z,99.90
2023-02-19T21:43:14.880Z,99.90
2023-02-19T21:46:03.171Z,99.90
2023-02-19T21:48:52.066Z,99.90
2023-02-19T21:51:41.696Z,99.90
2023-02-19T21:54:30.047Z,99.90
2023-02-19T21:57:18.244Z,99.90
2023-02-19T22:00:09.221Z,99.90
2023-02-19T22:02:57.519Z,99.90
2023-02-19T22:05:45.784Z,99.90
2023-02-19T22:08:34.002Z,99.90
2023-02-19T22:11:22.303Z,99.90
2023-02-19T22:14:10.597Z,99.90
2023-02-19T22:17:00.136Z,99.90
2023-02-19T22:19:48.474Z,99.90
2023-02-19T22:22:36.656Z,99.90
2023-02-19T22:25:24.894Z,99.90
2023-02-19T22:28:13.161Z,99.90
2023-02-19T22:31:01.397Z,99.90
2023-02-19T22:33:51.564Z,99.90
2023-02-19T22:36:40.391Z,99.90
2023-02-19T22:39:28.681Z,99.90
2023-02-19T22:42:17.050Z,99.90
2023-02-19T22:45:05.764Z,99.90
2023-02-19T22:47:56.264Z,99.90
2023-02-19T22:50:45.767Z,99.90
2023-02-19T22:53:34.013Z,99.90
2023-02-19T22:56:23.787Z,99.90
2023-02-19T22:59:12.097Z,99.90
2023-02-19T23:02:00.324Z,99.90
2023-02-19T23:04:48.567Z,99.90
2023-02-19T23:07:38.120Z,99.90
2023-02-19T23:10:27.089Z,99.90
2023-02-19T23:13:15.336Z,99.90
2023-02-19T23:16:04.687Z,99.90
2023-02-19T23:18:53.095Z,99.90
2023-02-19T23:21:42.473Z,99.90
2023-02-19T23:24:32.591Z,99.90
2023-02-19T23:27:20.808Z,99.90
2023-02-19T23:30:09.873Z,99.90
2023-02-19T23:32:58.114Z,99.90
2023-02-19T23:35:46.360Z,99.90
2023-02-19T23:38:34.654Z,99.90
2023-02-19T23:41:24.192Z,99.90
2023-02-19T23:44:12.423Z,99.90
2023-02-19T23:47:00.914Z,99.90
2023-02-19T23:49:49.143Z,99.90
2023-02-19T23:52:37.355Z,99.90
2023-02-19T23:55:25.832Z,99.90
2023-02-19T23:58:15.706Z,99.90
